createdAt,value
2022-10-18T00:01:15.397Z,99.90
2022-10-18T00:06:13.674Z,99.90
2022-10-18T00:11:11.843Z,99.90
2022-10-18T00:16:15.359Z,99.90
2022-10-18T00:21:15.498Z,99.90
2022-10-18T00:26:15.566Z,99.90
2022-10-18T00:31:17.687Z,99.90
2022-10-18T00:36:16.080Z,99.90
2022-10-18T00:41:16.616Z,99.90
2022-10-18T00:46:16.125Z,99.90
2022-10-18T00:51:14.502Z,99.90
2022-10-18T00:56:13.457Z,99.90
2022-10-18T01:01:11.633Z,99.90
2022-10-18T01:06:11.285Z,99.90
2022-10-18T01:11:32.909Z,99.90
2022-10-18T01:16:46.013Z,99.90
2022-10-18T01:21:51.261Z,99.90
2022-10-18T01:33:49.217Z,99.90
2022-10-18T01:38:50.644Z,99.90
2022-10-18T01:43:52.175Z,99.90
2022-10-18T01:48:52.861Z,99.90
2022-10-18T01:53:50.968Z,99.90
2022-10-18T01:59:05.817Z,99.90
2022-10-18T02:04:13.248Z,99.90
2022-10-18T02:09:17.329Z,99.90
2022-10-18T02:14:17.485Z,99.90
2022-10-18T02:19:20.972Z,99.90
2022-10-18T02:24:20.601Z,99.90
2022-10-18T02:29:18.998Z,99.90
2022-10-18T02:34:23.860Z,99.90
2022-10-18T02:39:26.449Z,99.90
2022-10-18T02:44:24.991Z,99.90
2022-10-18T02:49:24.623Z,99.90
2022-10-18T02:54:23.066Z,99.90
2022-10-18T02:59:21.169Z,99.90
2022-10-18T03:04:19.436Z,99.90
2022-10-18T03:09:18.912Z,99.90
2022-10-18T03:14:17.109Z,99.90
2022-10-18T03:19:15.266Z,99.90
2022-10-18T03:24:13.672Z,99.90
2022-10-18T03:29:13.482Z,99.90
2022-10-18T03:34:11.585Z,99.90
2022-10-18T03:39:09.827Z,99.90
2022-10-18T03:44:08.416Z,99.90
2022-10-18T03:49:07.832Z,99.90
2022-10-18T03:54:05.984Z,99.90
2022-10-18T03:59:04.601Z,99.90
2022-10-18T04:04:02.723Z,99.90
2022-10-18T04:09:04.214Z,99.90
2022-10-18T04:14:04.893Z,99.90
2022-10-18T04:19:03.019Z,99.90
2022-10-18T04:24:02.530Z,99.90
2022-10-18T04:29:00.718Z,99.90
2022-10-18T04:33:58.842Z,99.90
2022-10-18T04:38:56.958Z,99.90
2022-10-18T04:43:56.439Z,99.90
2022-10-18T04:48:54.575Z,99.90
2022-10-18T04:53:52.727Z,99.90
2022-10-18T04:58:50.924Z,99.90
2022-10-18T05:03:54.198Z,99.90
2022-10-18T05:08:52.312Z,99.90
2022-10-18T05:13:51.011Z,99.90
2022-10-18T05:18:49.270Z,99.90
2022-10-18T05:23:48.725Z,99.90
2022-10-18T05:28:46.892Z,99.90
2022-10-18T05:33:45.033Z,99.90
2022-10-18T05:38:44.029Z,99.90
2022-10-18T05:43:43.560Z,99.90
2022-10-18T05:48:41.680Z,99.90
2022-10-18T05:53:39.835Z,99.90
2022-10-18T05:58:38.056Z,99.90
2022-10-18T06:03:37.832Z,99.90
2022-10-18T06:08:36.159Z,99.90
2022-10-18T06:13:34.254Z,99.90
2022-10-18T06:18:32.359Z,99.90
2022-10-18T06:23:32.009Z,99.90
2022-10-18T06:28:30.513Z,99.90
2022-10-18T06:33:28.663Z,99.90
2022-10-18T06:38:27.135Z,99.90
2022-10-18T06:43:27.284Z,99.90
2022-10-18T06:48:25.819Z,99.90
2022-10-18T06:53:23.951Z,99.90
2022-10-18T06:58:22.090Z,99.90
2022-10-18T07:03:21.797Z,99.90
2022-10-18T07:08:20.201Z,99.90
2022-10-18T07:13:31.978Z,99.90
2022-10-18T07:18:33.048Z,99.90
2022-10-18T07:23:32.951Z,99.90
2022-10-18T07:28:31.206Z,99.90
2022-10-18T07:33:32.007Z,99.90
2022-10-18T07:38:30.236Z,99.90
2022-10-18T07:43:28.664Z,99.90
2022-10-18T07:48:27.174Z,99.90
2022-10-18T07:53:27.043Z,99.90
2022-10-18T07:58:25.203Z,99.90
2022-10-18T08:03:23.296Z,99.90
2022-10-18T08:08:22.102Z,99.90
2022-10-18T08:13:21.830Z,99.90
2022-10-18T08:18:19.876Z,99.90
2022-10-18T08:23:17.951Z,99.90
2022-10-18T08:29:24.211Z,99.90
2022-10-18T08:34:25.541Z,99.90
2022-10-18T08:46:13.698Z,99.90
2022-10-18T08:51:28.471Z,99.90
2022-10-18T08:56:27.994Z,99.90
2022-10-18T09:01:41.238Z,99.90
2022-10-18T09:07:41.265Z,99.90
2022-10-18T09:13:08.202Z,99.90
2022-10-18T09:18:25.156Z,99.90
2022-10-18T09:23:31.461Z,99.90
2022-10-18T09:28:41.583Z,99.90
2022-10-18T09:33:46.071Z,99.90
2022-10-18T09:38:47.530Z,99.90
2022-10-18T09:43:53.265Z,99.90
2022-10-18T09:48:54.835Z,99.90
2022-10-18T09:54:07.481Z,99.90
2022-10-18T09:59:12.650Z,99.90
2022-10-18T10:04:10.758Z,99.90
2022-10-18T10:09:16.798Z,99.90
2022-10-18T10:14:19.469Z,99.90
2022-10-18T10:19:29.401Z,99.90
2022-10-18T10:24:35.331Z,99.90
2022-10-18T10:29:53.903Z,99.90
2022-10-18T10:34:52.560Z,99.90
2022-10-18T10:40:18.390Z,99.90
2022-10-18T10:45:21.052Z,99.90
2022-10-18T10:50:25.654Z,99.90
2022-10-18T10:55:35.346Z,99.90
2022-10-18T11:00:41.735Z,99.90
2022-10-18T11:05:48.808Z,99.90
2022-10-18T11:11:00.412Z,99.90
2022-10-18T11:16:05.706Z,99.90
2022-10-18T11:21:08.218Z,99.90
2022-10-18T11:26:27.863Z,99.90
2022-10-18T11:31:34.047Z,99.90
2022-10-18T11:36:45.389Z,99.90
2022-10-18T11:42:03.304Z,99.90
2022-10-18T11:47:09.761Z,99.90
2022-10-18T11:52:16.176Z,99.90
2022-10-18T11:57:33.474Z,99.90
2022-10-18T12:02:55.321Z,99.90
2022-10-18T12:08:00.806Z,99.90
2022-10-18T12:13:02.994Z,99.90
2022-10-18T12:18:05.925Z,99.90
2022-10-18T12:23:06.801Z,99.90
2022-10-18T12:28:14.073Z,99.90
2022-10-18T12:33:33.204Z,99.90
2022-10-18T12:38:33.105Z,99.90
2022-10-18T12:43:36.750Z,99.90
2022-10-18T12:48:39.093Z,99.90
2022-10-18T12:53:37.251Z,99.90
2022-10-18T12:58:35.449Z,99.90
2022-10-18T13:03:52.336Z,99.90
2022-10-18T13:09:17.914Z,99.90
2022-10-18T13:14:49.375Z,99.90
2022-10-18T13:20:25.662Z,99.90
2022-10-18T13:25:31.942Z,99.90
2022-10-18T13:30:43.116Z,99.90
2022-10-18T13:35:55.096Z,99.90
2022-10-18T13:41:03.879Z,99.90
2022-10-18T13:53:32.396Z,99.90
2022-10-18T13:58:49.259Z,99.70
2022-10-18T14:04:28.136Z,99.90
2022-10-18T14:09:43.854Z,99.80
2022-10-18T14:14:46.418Z,99.50
2022-10-18T14:19:47.674Z,99.30
2022-10-18T14:24:47.723Z,99.70
2022-10-18T14:29:48.075Z,99.00
2022-10-18T14:34:46.238Z,99.50
2022-10-18T14:39:44.402Z,99.10
2022-10-18T14:44:42.528Z,99.10
2022-10-18T14:49:45.293Z,99.20
2022-10-18T14:54:44.085Z,99.30
2022-10-18T14:59:46.012Z,99.00
2022-10-18T15:04:47.353Z,99.60
2022-10-18T15:09:46.620Z,99.20
2022-10-18T15:14:45.520Z,99.10
2022-10-18T15:19:59.422Z,98.90
2022-10-18T15:25:15.280Z,98.70
2022-10-18T15:30:20.412Z,98.90
2022-10-18T15:35:26.179Z,98.30
2022-10-18T15:40:35.338Z,98.50
2022-10-18T15:45:38.956Z,98.30
2022-10-18T15:50:41.110Z,98.20
2022-10-18T15:55:50.653Z,98.40
2022-10-18T16:00:49.855Z,98.00
2022-10-18T16:05:49.743Z,98.60
2022-10-18T16:10:47.858Z,98.50
2022-10-18T16:15:46.018Z,98.40
2022-10-18T16:20:44.487Z,98.30
2022-10-18T16:25:44.009Z,98.40
2022-10-18T16:30:44.328Z,98.40
2022-10-18T16:35:42.466Z,98.60
2022-10-18T16:40:41.482Z,98.50
2022-10-18T16:45:41.072Z,99.10
2022-10-18T16:50:39.180Z,99.30
2022-10-18T16:55:37.634Z,99.30
2022-10-18T17:00:35.874Z,99.10
2022-10-18T17:05:35.385Z,99.40
2022-10-18T17:10:33.529Z,99.20
2022-10-18T17:15:34.429Z,99.60
2022-10-18T17:27:17.609Z,99.80
2022-10-18T17:32:15.817Z,99.90
2022-10-18T17:37:14.569Z,99.90
2022-10-18T17:42:12.660Z,99.90
2022-10-18T17:47:12.182Z,99.90
2022-10-18T17:52:10.337Z,99.90
2022-10-18T17:57:08.457Z,99.90
2022-10-18T18:02:06.628Z,99.90
2022-10-18T18:07:06.232Z,99.90
2022-10-18T18:12:04.840Z,99.90
2022-10-18T18:17:03.050Z,99.90
2022-10-18T18:22:01.648Z,99.90
2022-10-18T18:27:01.153Z,99.90
2022-10-18T18:31:59.790Z,99.90
2022-10-18T18:36:57.913Z,99.90
2022-10-18T18:41:56.211Z,99.90
2022-10-18T18:46:56.115Z,99.90
2022-10-18T18:51:54.333Z,99.90
2022-10-18T18:56:52.707Z,99.90
2022-10-18T19:01:50.939Z,99.90
2022-10-18T19:06:50.495Z,99.90
2022-10-18T19:11:49.992Z,99.90
2022-10-18T19:16:49.318Z,99.90
2022-10-18T19:21:51.354Z,99.90
2022-10-18T19:26:51.171Z,99.90
2022-10-18T19:31:50.391Z,99.90
2022-10-18T19:36:51.011Z,99.90
2022-10-18T19:41:51.453Z,99.90
2022-10-18T19:46:50.312Z,99.90
2022-10-18T19:51:49.930Z,99.90
2022-10-18T19:56:48.414Z,99.90
2022-10-18T20:01:46.727Z,99.90
2022-10-18T20:06:45.319Z,99.90
2022-10-18T20:11:44.733Z,99.90
2022-10-18T20:16:42.839Z,99.90
2022-10-18T20:21:40.957Z,99.90
2022-10-18T20:26:39.565Z,99.90
2022-10-18T20:31:39.495Z,99.90
2022-10-18T20:36:37.731Z,99.90
2022-10-18T20:41:38.253Z,99.90
2022-10-18T20:46:39.230Z,99.90
2022-10-18T20:51:37.344Z,99.90
2022-10-18T20:56:37.787Z,99.90
2022-10-18T21:01:37.357Z,99.90
2022-10-18T21:06:38.432Z,99.90
2022-10-18T21:11:37.893Z,99.90
2022-10-18T21:16:37.303Z,99.90
2022-10-18T21:21:37.048Z,99.90
2022-10-18T21:26:35.330Z,99.90
2022-10-18T21:31:36.273Z,99.90
2022-10-18T21:36:37.760Z,99.90
2022-10-18T21:41:36.360Z,99.90
2022-10-18T21:46:34.499Z,99.90
2022-10-18T21:51:32.759Z,99.90
2022-10-18T21:56:33.847Z,99.90
2022-10-18T22:01:34.850Z,99.90
2022-10-18T22:11:41.273Z,99.90
2022-10-18T22:16:39.744Z,99.90
2022-10-18T22:21:37.816Z,99.90
2022-10-18T22:26:39.137Z,99.90
2022-10-18T22:31:40.935Z,99.90
2022-10-18T22:36:39.144Z,99.90
2022-10-18T22:41:38.666Z,99.90
2022-10-18T22:46:36.786Z,99.90
2022-10-18T22:56:39.654Z,99.90
2022-10-18T23:01:38.723Z,99.90
2022-10-18T23:06:37.608Z,99.90
2022-10-18T23:11:37.061Z,99.90
2022-10-18T23:16:36.665Z,99.90
2022-10-18T23:21:35.942Z,99.90
2022-10-18T23:26:34.247Z,99.90
2022-10-18T23:31:59.972Z,99.90
2022-10-18T23:36:59.444Z,99.90
2022-10-18T23:41:57.519Z,99.90
2022-10-18T23:46:55.691Z,99.90
2022-10-18T23:51:53.802Z,99.90
2022-10-18T23:56:53.321Z,99.90
